Time;durP1;ratioP1;P1;durP2;ratioP2;P2;SDS_P1;SDS_P2;PMS_P1;PMS_P2;Temp;Humidity;BMP_temperature;BMP_pressure;BME280_temperature;BME280_humidity;BME280_pressure;Samples;Min_cycle;Max_cycle;Signal;HPM_P1;HPM_P2
2022/02/26 00:01:07;;;;;;;4.47;1.90;;;8.40;90.90;;;;;;5083104;28;20467;-79
2022/02/26 00:03:37;;;;;;;3.20;1.20;;;8.40;90.30;;;;;;5086189;28;20456;-79
2022/02/26 00:06:06;;;;;;;3.93;1.90;;;8.40;90.10;;;;;;5085288;28;20507;-80
2022/02/26 00:08:36;;;;;;;5.80;1.50;;;8.40;90.00;;;;;;5085130;28;20448;-79
2022/02/26 00:11:05;;;;;;;3.73;2.10;;;8.40;87.90;;;;;;5082569;28;21482;-80
2022/02/26 00:13:34;;;;;;;2.27;2.07;;;8.40;92.60;;;;;;5081651;28;20487;-81
2022/02/26 00:16:03;;;;;;;1.63;1.30;;;8.40;88.40;;;;;;5082452;28;20595;-80
2022/02/26 00:18:31;;;;;;;3.57;1.63;;;8.40;86.80;;;;;;5085722;28;20460;-80
2022/02/26 00:21:01;;;;;;;3.50;2.00;;;8.30;86.30;;;;;;5084257;28;20447;-80
2022/02/26 00:23:29;;;;;;;1.50;1.40;;;8.50;85.30;;;;;;5084544;28;20459;-79
2022/02/26 00:25:57;;;;;;;2.50;1.47;;;8.30;86.00;;;;;;5085833;28;20444;-79
2022/02/26 00:28:30;;;;;;;1.70;1.60;;;8.10;84.60;;;;;;5084471;28;20480;-79
2022/02/26 00:30:59;;;;;;;2.30;1.47;;;8.10;86.90;;;;;;5081820;28;20455;-79
2022/02/26 00:33:27;;;;;;;3.27;1.50;;;8.20;87.10;;;;;;5085007;28;20970;-79
2022/02/26 00:35:58;;;;;;;2.83;1.20;;;8.30;88.10;;;;;;5083313;28;20471;-78
2022/02/26 00:38:28;;;;;;;1.70;1.20;;;8.20;86.40;;;;;;5086296;28;20451;-80
2022/02/26 00:40:56;;;;;;;4.40;1.53;;;8.20;88.70;;;;;;5085296;28;20448;-80
2022/02/26 00:43:25;;;;;;;5.30;1.53;;;8.30;88.20;;;;;;5085205;28;20473;-81
2022/02/26 00:45:53;;;;;;;2.80;1.27;;;8.20;88.80;;;;;;5084260;28;20440;-80
2022/02/26 00:49:46;;;;;;;2.67;1.30;;;8.10;91.20;;;;;;5085163;28;20456;-79
2022/02/26 00:51:09;;;;;;;1.30;1.20;;;8.10;91.30;;;;;;5084369;28;20464;-79
2022/02/26 00:53:39;;;;;;;2.10;1.40;;;8.40;91.60;;;;;;5086191;28;20483;-79
2022/02/26 00:56:07;;;;;;;2.20;1.77;;;8.20;92.70;;;;;;5087825;28;20518;-80
2022/02/26 00:58:35;;;;;;;2.50;1.00;;;8.20;93.10;;;;;;5084323;28;20472;-81
2022/02/26 01:01:04;;;;;;;3.93;1.30;;;8.20;93.40;;;;;;5084851;28;20466;-81
2022/02/26 01:03:32;;;;;;;5.07;1.90;;;8.20;92.90;;;;;;5083700;28;20553;-82
2022/02/26 01:06:01;;;;;;;6.37;1.40;;;8.30;94.00;;;;;;5086046;28;20463;-80
2022/02/26 01:08:29;;;;;;;5.37;1.97;;;8.30;92.90;;;;;;5086648;28;20475;-80
2022/02/26 01:10:59;;;;;;;3.73;1.17;;;8.30;92.70;;;;;;5084969;28;20459;-80
2022/02/26 01:13:27;;;;;;;5.03;1.63;;;7.90;93.30;;;;;;5083528;28;20503;-79
2022/02/26 01:15:55;;;;;;;3.13;1.20;;;8.30;92.80;;;;;;5086559;28;21120;-79
2022/02/26 01:18:24;;;;;;;1.30;1.17;;;8.20;93.60;;;;;;5080882;28;20456;-80
2022/02/26 01:20:52;;;;;;;1.33;1.00;;;8.20;93.50;;;;;;5084569;28;20462;-80
2022/02/26 01:23:20;;;;;;;3.63;1.47;;;8.20;93.40;;;;;;5086650;28;20473;-80
2022/02/26 01:25:48;;;;;;;2.77;1.83;;;8.30;94.70;;;;;;5085202;28;20466;-80
2022/02/26 01:28:18;;;;;;;2.53;1.03;;;8.40;93.70;;;;;;5082921;28;20534;-80
2022/02/26 01:30:46;;;;;;;1.43;1.27;;;8.30;93.40;;;;;;5084901;28;20536;-78
2022/02/26 01:33:14;;;;;;;5.13;1.63;;;8.40;92.80;;;;;;5085250;28;20525;-81
2022/02/26 01:35:42;;;;;;;3.70;1.53;;;8.40;92.60;;;;;;5088761;28;20468;-80
2022/02/26 01:38:11;;;;;;;2.70;1.10;;;8.20;93.20;;;;;;5087777;28;20466;-80
2022/02/26 01:40:39;;;;;;;1.70;1.10;;;8.20;93.60;;;;;;5085354;28;20979;-80
2022/02/26 01:43:08;;;;;;;3.00;1.47;;;8.20;93.90;;;;;;5086196;28;20480;-81
2022/02/26 01:45:37;;;;;;;1.80;1.70;;;8.20;94.90;;;;;;5082637;28;20455;-80
2022/02/26 01:48:06;;;;;;;2.83;1.20;;;8.20;95.40;;;;;;5084492;28;20460;-80
2022/02/26 01:50:34;;;;;;;1.90;1.23;;;8.20;93.60;;;;;;5082178;28;20452;-81
2022/02/26 01:53:07;;;;;;;4.20;1.40;;;8.20;94.70;;;;;;5084733;28;20492;-79
2022/02/26 01:55:35;;;;;;;2.27;1.70;;;8.20;93.40;;;;;;5086546;28;20962;-80
2022/02/26 01:58:03;;;;;;;3.87;1.30;;;8.10;93.90;;;;;;5084305;28;20460;-79
2022/02/26 02:00:32;;;;;;;3.87;1.83;;;8.10;95.40;;;;;;5085148;28;20466;-79
2022/02/26 02:03:02;;;;;;;3.60;1.17;;;8.10;96.10;;;;;;5085651;28;20537;-80
2022/02/26 02:05:32;;;;;;;5.90;1.53;;;8.10;95.60;;;;;;5085070;28;21056;-81
2022/02/26 02:08:01;;;;;;;2.07;1.30;;;8.10;94.90;;;;;;5085709;28;20468;-80
2022/02/26 02:10:37;;;;;;;2.23;1.17;;;8.50;95.20;;;;;;5079910;28;20447;-80
2022/02/26 02:13:05;;;;;;;3.43;1.47;;;8.20;95.40;;;;;;5085785;28;20475;-80
2022/02/26 02:15:35;;;;;;;2.03;1.00;;;8.20;94.50;;;;;;5085297;28;20460;-79
2022/02/26 02:18:06;;;;;;;1.40;1.30;;;8.40;94.30;;;;;;5081682;28;20454;-79
2022/02/26 02:20:35;;;;;;;2.40;1.57;;;8.20;94.10;;;;;;5085379;28;20494;-79
2022/02/26 02:23:06;;;;;;;3.53;1.40;;;8.10;94.00;;;;;;5084785;28;20490;-79
2022/02/26 02:25:35;;;;;;;2.10;1.20;;;8.10;93.30;;;;;;5084185;28;20449;-79
2022/02/26 02:28:05;;;;;;;6.90;1.30;;;8.20;95.70;;;;;;5084244;28;20536;-80
2022/02/26 02:30:34;;;;;;;2.50;1.40;;;8.10;95.10;;;;;;5081710;28;20455;-80
2022/02/26 02:33:03;;;;;;;1.83;1.10;;;8.20;96.70;;;;;;5080188;28;20494;-81
2022/02/26 02:35:32;;;;;;;1.77;1.20;;;8.10;95.80;;;;;;5082098;28;20442;-80
2022/02/26 02:38:05;;;;;;;4.70;1.93;;;8.10;95.80;;;;;;5083558;28;20441;-81
2022/02/26 02:40:35;;;;;;;4.00;1.40;;;8.20;95.80;;;;;;5083260;28;20449;-79
2022/02/26 02:43:05;;;;;;;2.27;1.50;;;8.20;96.00;;;;;;5084821;28;20528;-79
2022/02/26 02:45:34;;;;;;;3.20;1.43;;;8.10;95.90;;;;;;5087096;28;20456;-81
2022/02/26 02:48:03;;;;;;;2.93;1.20;;;8.10;99.90;;;;;;5090740;28;20796;-81
2022/02/26 02:50:31;;;;;;;4.57;1.50;;;8.10;99.90;;;;;;5090145;28;20448;-82
2022/02/26 02:53:00;;;;;;;8.00;1.60;;;8.10;96.70;;;;;;5087966;28;20456;-81
2022/02/26 02:55:28;;;;;;;2.57;1.40;;;8.00;95.60;;;;;;5093394;28;20474;-80
2022/02/26 02:57:59;;;;;;;1.73;1.33;;;7.90;96.50;;;;;;5091114;28;20466;-81
2022/02/26 03:00:28;;;;;;;3.20;1.33;;;7.80;96.50;;;;;;5090968;28;20441;-80
2022/02/26 03:02:57;;;;;;;1.53;1.37;;;8.00;96.60;;;;;;5087235;28;20500;-81
2022/02/26 03:05:27;;;;;;;5.03;1.50;;;8.00;96.40;;;;;;5090308;28;20833;-80
2022/02/26 03:07:55;;;;;;;3.10;1.30;;;8.00;95.80;;;;;;5087692;28;20455;-80
2022/02/26 03:10:24;;;;;;;2.13;1.60;;;8.10;96.40;;;;;;5086245;28;20448;-80
2022/02/26 03:12:52;;;;;;;3.77;1.50;;;8.00;96.30;;;;;;5087152;28;20459;-80
2022/02/26 03:15:23;;;;;;;1.87;1.70;;;8.00;96.70;;;;;;5088199;28;20570;-80
2022/02/26 03:17:52;;;;;;;1.87;1.40;;;7.90;95.70;;;;;;5088939;28;20453;-79
2022/02/26 03:20:21;;;;;;;1.47;1.37;;;7.90;97.10;;;;;;5086908;28;20459;-80
2022/02/26 03:22:50;;;;;;;3.60;1.63;;;8.00;96.40;;;;;;5088460;28;20466;-80
2022/02/26 03:25:20;;;;;;;1.50;1.40;;;7.90;96.10;;;;;;5087457;28;20972;-80
2022/02/26 03:27:48;;;;;;;3.63;2.13;;;8.00;95.70;;;;;;5088239;28;20447;-80
2022/02/26 03:30:16;;;;;;;2.50;1.33;;;8.00;96.80;;;;;;5088877;28;20449;-79
2022/02/26 03:32:46;;;;;;;4.50;1.90;;;8.10;96.60;;;;;;5080038;28;20463;-81
2022/02/26 03:35:14;;;;;;;3.43;1.70;;;8.30;96.80;;;;;;5087676;28;20484;-80
2022/02/26 03:37:43;;;;;;;2.40;1.60;;;8.00;96.50;;;;;;5087773;28;20457;-79
2022/02/26 03:40:13;;;;;;;6.70;1.90;;;8.20;96.80;;;;;;5087955;28;20447;-80
2022/02/26 03:42:41;;;;;;;4.00;1.90;;;8.00;95.80;;;;;;5089763;28;20446;-79
2022/02/26 03:45:11;;;;;;;2.87;1.60;;;8.00;97.00;;;;;;5086287;28;20460;-80
2022/02/26 03:47:40;;;;;;;4.90;2.20;;;8.00;96.00;;;;;;5087827;28;20996;-80
2022/02/26 03:50:11;;;;;;;3.30;1.83;;;7.90;96.50;;;;;;5088218;28;20484;-79
2022/02/26 03:52:40;;;;;;;3.57;2.40;;;8.00;96.10;;;;;;5083530;28;20530;-79
2022/02/26 03:55:09;;;;;;;2.43;2.03;;;7.90;96.60;;;;;;5085516;28;21040;-80
2022/02/26 03:57:43;;;;;;;7.37;1.50;;;7.90;95.80;;;;;;5083779;28;20459;-80
2022/02/26 04:00:13;;;;;;;5.00;1.70;;;7.90;96.80;;;;;;5086665;28;20475;-80
2022/02/26 04:02:43;;;;;;;3.53;2.27;;;7.90;95.90;;;;;;5089650;28;20463;-80
2022/02/26 04:05:13;;;;;;;3.57;1.90;;;7.90;96.70;;;;;;5087802;28;20473;-81
2022/02/26 04:07:44;;;;;;;2.67;2.37;;;7.80;96.80;;;;;;5086888;28;20504;-80
2022/02/26 04:10:13;;;;;;;2.97;2.77;;;7.80;96.10;;;;;;5087798;28;20456;-81
2022/02/26 04:12:42;;;;;;;3.87;2.47;;;7.80;96.30;;;;;;5088514;28;20464;-81
2022/02/26 04:15:10;;;;;;;3.90;1.80;;;7.80;96.30;;;;;;5084885;28;20469;-80
2022/02/26 04:17:38;;;;;;;3.50;2.40;;;7.80;96.60;;;;;;5087549;28;20493;-80
2022/02/26 04:20:09;;;;;;;2.73;2.53;;;7.80;97.10;;;;;;5085843;28;20529;-79
2022/02/26 04:22:40;;;;;;;6.97;2.43;;;7.80;95.80;;;;;;5090643;28;20458;-81
2022/02/26 04:25:09;;;;;;;4.00;2.37;;;7.80;96.80;;;;;;5089498;28;20847;-79
2022/02/26 04:27:38;;;;;;;4.30;2.20;;;7.80;96.70;;;;;;5086679;28;20453;-79
2022/02/26 04:30:08;;;;;;;2.60;1.90;;;7.80;96.60;;;;;;5087390;28;20439;-80
2022/02/26 04:32:41;;;;;;;4.80;2.17;;;7.80;95.90;;;;;;5086011;28;20448;-80
2022/02/26 04:35:11;;;;;;;3.57;2.63;;;7.80;96.00;;;;;;5087109;28;20485;-79
2022/02/26 04:37:40;;;;;;;4.43;2.63;;;7.80;95.70;;;;;;5076719;28;20465;-80
2022/02/26 04:40:10;;;;;;;5.30;2.73;;;7.80;96.40;;;;;;5084760;28;20462;-79
2022/02/26 04:42:39;;;;;;;9.67;2.40;;;7.80;95.70;;;;;;5085416;28;20938;-79
2022/02/26 04:45:08;;;;;;;5.20;1.90;;;7.80;96.30;;;;;;5086596;28;20475;-79
2022/02/26 04:47:37;;;;;;;2.90;2.20;;;7.80;95.80;;;;;;5084662;28;20454;-79
2022/02/26 04:50:07;;;;;;;3.43;2.50;;;7.80;96.90;;;;;;5086579;28;20458;-80
2022/02/26 04:52:35;;;;;;;4.03;2.20;;;7.70;95.90;;;;;;5088847;28;20459;-80
2022/02/26 04:55:07;;;;;;;4.87;2.30;;;7.70;97.30;;;;;;5086310;28;20479;-79
2022/02/26 04:57:35;;;;;;;6.30;2.30;;;7.70;96.40;;;;;;5085119;28;20982;-81
2022/02/26 05:00:05;;;;;;;8.03;2.90;;;7.70;99.30;;;;;;5085461;28;20457;-81
2022/02/26 05:02:33;;;;;;;2.63;2.43;;;7.70;99.90;;;;;;5085129;28;20463;-80
2022/02/26 05:05:02;;;;;;;5.20;2.83;;;7.70;98.90;;;;;;5083566;28;20459;-82
2022/02/26 05:07:30;;;;;;;5.27;2.53;;;7.80;99.90;;;;;;5078903;28;21081;-80
2022/02/26 05:09:58;;;;;;;3.00;2.67;;;8.10;99.90;;;;;;5079945;28;20452;-82
2022/02/26 05:12:28;;;;;;;3.80;2.77;;;7.60;98.80;;;;;;5084484;28;20488;-83
2022/02/26 05:14:56;;;;;;;4.03;2.00;;;7.60;99.90;;;;;;5083469;28;20470;-82
2022/02/26 05:17:24;;;;;;;4.23;1.80;;;7.70;99.90;;;;;;5082486;28;20456;-82
2022/02/26 05:19:52;;;;;;;2.60;1.80;;;7.70;99.90;;;;;;5083504;28;20541;-82
2022/02/26 05:22:21;;;;;;;5.80;2.57;;;7.70;99.90;;;;;;5082502;28;20529;-82
2022/02/26 05:24:49;;;;;;;3.07;1.80;;;8.10;99.70;;;;;;5083133;28;20479;-82
2022/02/26 05:27:17;;;;;;;3.60;2.50;;;8.10;98.00;;;;;;5084173;28;20481;-83
2022/02/26 05:29:47;;;;;;;3.43;2.27;;;7.70;97.00;;;;;;5084927;28;20503;-78
2022/02/26 05:32:15;;;;;;;3.57;1.73;;;7.70;96.50;;;;;;5082624;28;20486;-78
2022/02/26 05:34:43;;;;;;;3.00;2.00;;;7.60;97.10;;;;;;5084530;28;20466;-80
2022/02/26 05:37:11;;;;;;;5.07;2.30;;;7.60;99.50;;;;;;5082697;28;20447;-80
2022/02/26 05:39:39;;;;;;;3.40;2.10;;;7.60;97.60;;;;;;5083196;28;20477;-78
2022/02/26 05:42:10;;;;;;;5.07;2.50;;;7.60;98.10;;;;;;5079106;28;21055;-83
2022/02/26 05:44:39;;;;;;;6.67;2.10;;;7.70;96.10;;;;;;5085738;28;20489;-81
2022/02/26 05:47:09;;;;;;;4.40;1.93;;;7.80;98.30;;;;;;5081031;28;20448;-81
2022/02/26 05:49:37;;;;;;;3.30;2.00;;;7.60;98.50;;;;;;5084902;28;20454;-81
2022/02/26 05:52:06;;;;;;;4.73;2.13;;;7.60;99.90;;;;;;5096373;28;20867;-80
2022/02/26 05:54:35;;;;;;;7.50;2.50;;;7.60;98.60;;;;;;5084422;28;20467;-80
2022/02/26 05:57:04;;;;;;;3.93;2.03;;;7.60;99.90;;;;;;5080112;28;21193;-80
2022/02/26 05:59:32;;;;;;;4.83;2.90;;;7.60;99.90;;;;;;5082802;28;20446;-81
2022/02/26 06:02:01;;;;;;;4.33;3.00;;;7.60;99.90;;;;;;5081681;28;20467;-82
2022/02/26 06:04:30;;;;;;;5.07;2.47;;;7.60;99.90;;;;;;5085509;28;20520;-81
2022/02/26 06:06:59;;;;;;;3.97;2.63;;;7.60;99.90;;;;;;5086729;28;20480;-81
2022/02/26 06:09:27;;;;;;;7.17;2.37;;;7.60;99.90;;;;;;5081028;28;20460;-81
2022/02/26 06:11:55;;;;;;;6.37;3.83;;;7.50;99.90;;;;;;5083805;28;21001;-83
2022/02/26 06:14:24;;;;;;;5.37;3.03;;;7.60;99.90;;;;;;5080225;28;21435;-81
2022/02/26 06:16:52;;;;;;;4.70;3.30;;;7.60;99.90;;;;;;5079685;28;21038;-81
2022/02/26 06:19:22;;;;;;;3.87;2.30;;;7.90;99.90;;;;;;5087420;28;20466;-81
2022/02/26 06:21:51;;;;;;;4.77;2.73;;;7.60;99.90;;;;;;5090954;28;20833;-78
2022/02/26 06:24:19;;;;;;;7.07;2.97;;;7.60;99.90;;;;;;5090721;28;20481;-81
2022/02/26 06:26:48;;;;;;;3.93;3.00;;;7.60;99.90;;;;;;5089980;28;20465;-81
2022/02/26 06:29:16;;;;;;;4.90;3.17;;;7.60;99.90;;;;;;5087499;28;20954;-80
2022/02/26 06:31:44;;;;;;;6.33;2.33;;;7.60;99.90;;;;;;5087836;28;20461;-80
2022/02/26 06:34:12;;;;;;;3.90;2.30;;;7.60;99.90;;;;;;5088833;28;20486;-78
2022/02/26 06:36:40;;;;;;;6.30;3.10;;;7.60;99.90;;;;;;5088107;28;20467;-79
2022/02/26 06:39:10;;;;;;;4.67;3.23;;;7.60;99.90;;;;;;5084366;28;20862;-79
2022/02/26 06:41:38;;;;;;;7.93;3.13;;;7.50;99.90;;;;;;5088103;28;20471;-80
2022/02/26 06:44:07;;;;;;;4.05;3.13;;;7.60;99.90;;;;;;5088587;28;20512;-83
2022/02/26 06:46:37;;;;;;;8.97;3.27;;;7.50;99.90;;;;;;5084414;28;20346;-79
2022/02/26 06:49:06;;;;;;;10.73;3.53;;;7.50;99.90;;;;;;5086645;28;20444;-79
2022/02/26 06:51:35;;;;;;;6.20;2.40;;;7.60;99.90;;;;;;5088203;28;20552;-78
2022/02/26 06:54:03;;;;;;;5.10;2.90;;;7.60;99.90;;;;;;5082092;28;20559;-80
2022/02/26 06:56:34;;;;;;;6.17;3.03;;;7.70;99.90;;;;;;5086373;28;20473;-77
2022/02/26 06:59:02;;;;;;;6.80;3.20;;;7.60;99.90;;;;;;5080615;28;20481;-77
2022/02/26 07:01:33;;;;;;;3.60;2.67;;;7.60;99.90;;;;;;5086336;28;20440;-78
2022/02/26 07:04:02;;;;;;;6.40;3.27;;;7.70;99.90;;;;;;5089378;28;20565;-79
2022/02/26 07:06:30;;;;;;;4.67;2.73;;;7.90;99.90;;;;;;5083944;28;20442;-78
2022/02/26 07:08:59;;;;;;;7.73;2.63;;;7.70;99.90;;;;;;5088841;28;20481;-77
2022/02/26 07:11:27;;;;;;;8.03;3.10;;;8.00;99.90;;;;;;5084310;28;20579;-78
2022/02/26 07:13:56;;;;;;;5.50;2.73;;;8.00;99.90;;;;;;5089844;28;20472;-79
2022/02/26 07:16:24;;;;;;;5.53;2.50;;;7.70;99.90;;;;;;5090191;28;20502;-79
2022/02/26 07:18:53;;;;;;;7.47;3.40;;;7.80;99.90;;;;;;5083343;28;20469;-78
2022/02/26 07:21:21;;;;;;;4.80;2.67;;;7.70;99.90;;;;;;5089523;28;20444;-78
2022/02/26 07:23:49;;;;;;;4.33;2.77;;;7.60;99.90;;;;;;5088190;28;20839;-78
2022/02/26 07:26:17;;;;;;;7.03;3.00;;;8.00;99.90;;;;;;5090888;28;20448;-78
2022/02/26 07:28:45;;;;;;;6.10;2.80;;;7.70;99.90;;;;;;5082980;28;20464;-77
2022/02/26 07:31:15;;;;;;;3.80;2.90;;;7.60;99.90;;;;;;5083729;28;20916;-79
2022/02/26 07:33:43;;;;;;;5.77;2.50;;;7.90;99.90;;;;;;5079627;28;21257;-78
2022/02/26 07:36:12;;;;;;;8.37;3.80;;;7.70;99.90;;;;;;5083865;28;20468;-78
2022/02/26 07:38:41;;;;;;;3.90;3.10;;;7.60;99.90;;;;;;5081180;28;20462;-79
2022/02/26 07:41:09;;;;;;;8.63;4.03;;;7.70;99.90;;;;;;5083748;28;21160;-79
2022/02/26 07:43:39;;;;;;;4.17;2.43;;;7.80;99.90;;;;;;5082059;28;20474;-79
2022/02/26 07:46:08;;;;;;;4.07;2.83;;;7.70;99.90;;;;;;5075146;28;20443;-78
2022/02/26 07:48:38;;;;;;;3.10;2.60;;;7.80;99.90;;;;;;5085943;28;20460;-79
2022/02/26 07:51:12;;;;;;;5.30;2.60;;;7.80;99.90;;;;;;5089910;28;20467;-78
2022/02/26 07:53:42;;;;;;;4.90;2.83;;;7.90;99.90;;;;;;5083660;28;20483;-79
2022/02/26 07:56:10;;;;;;;4.53;3.27;;;8.00;99.90;;;;;;5102933;27;20471;-80
2022/02/26 07:58:39;;;;;;;9.10;4.17;;;8.00;99.90;;;;;;5090787;28;20485;-79
2022/02/26 08:01:07;;;;;;;5.57;2.63;;;8.00;99.90;;;;;;5093085;28;20520;-80
2022/02/26 08:03:36;;;;;;;4.87;2.77;;;8.00;99.90;;;;;;5089415;28;20835;-81
2022/02/26 08:06:05;;;;;;;4.37;3.30;;;8.00;99.90;;;;;;5085355;28;20917;-80
2022/02/26 08:08:33;;;;;;;4.87;2.80;;;8.00;99.90;;;;;;5081276;28;20459;-79
2022/02/26 08:11:01;;;;;;;5.10;2.80;;;7.90;99.90;;;;;;5079356;28;21239;-78
2022/02/26 08:13:30;;;;;;;6.50;2.70;;;8.00;99.90;;;;;;5079458;28;20472;-78
2022/02/26 08:15:58;;;;;;;5.57;3.07;;;7.90;99.90;;;;;;5079920;28;20462;-80
2022/02/26 08:18:26;;;;;;;7.00;3.23;;;8.00;99.90;;;;;;5080979;28;20539;-79
2022/02/26 08:20:58;;;;;;;4.87;3.40;;;8.00;99.90;;;;;;5082071;28;20445;-79
2022/02/26 08:23:27;;;;;;;4.37;2.83;;;8.00;99.90;;;;;;5085646;28;20487;-80
2022/02/26 08:25:57;;;;;;;4.03;2.90;;;8.00;99.90;;;;;;5081609;28;20463;-81
2022/02/26 08:28:25;;;;;;;9.23;4.47;;;8.10;99.90;;;;;;5082847;28;20457;-78
2022/02/26 08:30:54;;;;;;;10.20;4.10;;;8.10;99.90;;;;;;5084647;28;20466;-79
2022/02/26 08:33:22;;;;;;;6.73;3.60;;;8.20;99.30;;;;;;5086941;28;20523;-80
2022/02/26 08:35:50;;;;;;;10.13;4.13;;;8.20;99.90;;;;;;5086820;28;20456;-81
2022/02/26 08:38:20;;;;;;;3.80;3.27;;;8.20;97.90;;;;;;5081243;28;20476;-80
2022/02/26 08:40:48;;;;;;;5.97;2.13;;;8.10;98.30;;;;;;5083396;28;20443;-79
2022/02/26 08:43:16;;;;;;;5.47;3.47;;;8.10;97.00;;;;;;5081331;28;20551;-80
2022/02/26 08:45:45;;;;;;;5.80;2.27;;;8.10;96.50;;;;;;5086901;28;21191;-80
2022/02/26 08:48:13;;;;;;;6.17;2.23;;;8.00;95.50;;;;;;5080768;28;20542;-79
2022/02/26 08:50:42;;;;;;;3.63;1.60;;;8.00;96.10;;;;;;5075231;28;20466;-79
2022/02/26 08:53:10;;;;;;;4.43;2.33;;;8.00;95.40;;;;;;5079808;28;21257;-80
2022/02/26 08:55:39;;;;;;;5.77;2.70;;;8.30;95.40;;;;;;5084874;28;20480;-78
2022/02/26 08:58:08;;;;;;;5.47;2.50;;;8.10;95.10;;;;;;5081642;28;20468;-78
2022/02/26 09:00:36;;;;;;;4.83;2.33;;;8.10;94.00;;;;;;5083225;28;20453;-79
2022/02/26 09:03:05;;;;;;;4.97;2.37;;;8.10;92.30;;;;;;5077656;28;20537;-79
2022/02/26 09:05:34;;;;;;;3.63;1.87;;;8.20;90.80;;;;;;5077797;28;20445;-80
2022/02/26 09:08:02;;;;;;;3.63;1.80;;;8.30;90.20;;;;;;5075082;28;20464;-79
2022/02/26 09:10:31;;;;;;;5.43;2.20;;;8.40;89.00;;;;;;5080794;28;20493;-79
2022/02/26 09:13:00;;;;;;;3.27;2.80;;;8.50;84.80;;;;;;5078885;28;20443;-79
2022/02/26 09:15:29;;;;;;;7.97;2.27;;;8.50;90.70;;;;;;5087463;28;20453;-80
2022/02/26 09:17:57;;;;;;;4.47;1.80;;;8.60;90.70;;;;;;5088714;28;20508;-79
2022/02/26 09:20:25;;;;;;;2.63;1.27;;;8.70;91.00;;;;;;5082711;28;20464;-80
2022/02/26 09:22:54;;;;;;;3.90;2.00;;;9.00;77.90;;;;;;5089635;28;20461;-81
2022/02/26 09:25:22;;;;;;;4.30;2.00;;;8.80;72.10;;;;;;5089643;28;20514;-79
2022/02/26 09:27:50;;;;;;;4.23;1.20;;;8.70;71.60;;;;;;5086831;28;20451;-80
2022/02/26 09:30:19;;;;;;;2.80;1.00;;;8.80;69.00;;;;;;5089362;28;20994;-80
2022/02/26 09:32:48;;;;;;;2.03;1.40;;;8.90;68.00;;;;;;5089931;28;20449;-80
2022/02/26 09:35:16;;;;;;;2.70;1.50;;;8.90;66.20;;;;;;5089487;28;20553;-80
2022/02/26 09:37:45;;;;;;;3.70;1.77;;;8.90;67.60;;;;;;5085027;28;20480;-79
2022/02/26 09:40:13;;;;;;;3.53;1.57;;;8.90;61.20;;;;;;5085211;28;20463;-80
2022/02/26 09:42:41;;;;;;;1.70;1.20;;;9.00;60.90;;;;;;5088714;28;20461;-79
2022/02/26 09:45:10;;;;;;;2.50;1.00;;;9.00;54.60;;;;;;5086532;28;20507;-79
2022/02/26 09:47:39;;;;;;;1.57;1.00;;;9.00;52.10;;;;;;5084961;28;20461;-80
2022/02/26 09:50:08;;;;;;;4.03;1.10;;;8.90;50.20;;;;;;5079555;28;20442;-80
2022/02/26 09:52:42;;;;;;;1.90;1.20;;;8.90;48.30;;;;;;5071975;28;20460;-79
2022/02/26 09:55:10;;;;;;;2.17;1.20;;;9.00;49.60;;;;;;5077197;28;20564;-80
2022/02/26 09:57:39;;;;;;;2.80;1.60;;;9.00;45.00;;;;;;5090340;28;20472;-79
2022/02/26 10:00:08;;;;;;;2.17;1.00;;;8.80;39.30;;;;;;5084458;28;20471;-78
2022/02/26 10:02:40;;;;;;;4.50;1.40;;;8.80;33.30;;;;;;5084662;28;20452;-80
2022/02/26 10:05:10;;;;;;;1.20;1.10;;;8.70;34.00;;;;;;5088908;28;20215;-78
2022/02/26 10:07:41;;;;;;;2.43;1.03;;;8.70;30.50;;;;;;5087979;28;20439;-79
2022/02/26 10:10:15;;;;;;;2.70;1.10;;;8.50;30.00;;;;;;5077241;28;20443;-79
2022/02/26 10:12:44;;;;;;;1.53;1.00;;;8.50;31.60;;;;;;5088671;28;20460;-79
2022/02/26 10:15:23;;;;;;;3.03;1.30;;;8.60;34.60;;;;;;5086623;28;20992;-80
2022/02/26 10:18:05;;;;;;;1.60;1.00;;;8.60;33.10;;;;;;5083201;28;20474;-80
2022/02/26 10:20:35;;;;;;;8.20;1.30;;;8.60;32.90;;;;;;5084090;28;20960;-79
2022/02/26 10:23:03;;;;;;;5.13;1.80;;;9.00;34.40;;;;;;5087854;28;20452;-78
2022/02/26 10:25:32;;;;;;;1.60;1.00;;;8.80;33.10;;;;;;5088076;28;20460;-78
2022/02/26 10:28:03;;;;;;;1.57;1.10;;;8.80;32.20;;;;;;5082978;28;20578;-79
2022/02/26 10:30:40;;;;;;;4.10;1.10;;;9.00;34.30;;;;;;5080719;28;20455;-77
2022/02/26 10:33:11;;;;;;;1.80;1.03;;;9.10;35.40;;;;;;5086331;28;20457;-78
2022/02/26 10:35:45;;;;;;;2.57;1.30;;;9.20;34.80;;;;;;5085447;28;20450;-79
2022/02/26 10:38:20;;;;;;;1.40;1.27;;;9.30;32.70;;;;;;5077273;28;20507;-79
2022/02/26 10:40:54;;;;;;;1.80;1.13;;;9.40;30.50;;;;;;5085140;28;20470;-77
2022/02/26 10:43:38;;;;;;;0.90;0.90;;;9.40;29.50;;;;;;5089013;28;20991;-78
2022/02/26 10:46:25;;;;;;;2.13;1.40;;;9.50;32.90;;;;;;5087812;28;20461;-78
2022/02/26 10:48:57;;;;;;;4.53;1.10;;;9.60;33.40;;;;;;5082185;28;20522;-80
2022/02/26 10:51:28;;;;;;;2.87;1.30;;;9.60;31.50;;;;;;5084650;28;20461;-78
2022/02/26 10:53:57;;;;;;;1.30;1.20;;;9.60;31.80;;;;;;5085065;28;20485;-77
2022/02/26 10:56:33;;;;;;;2.90;1.20;;;9.80;34.00;;;;;;5081966;28;20456;-78
2022/02/26 10:59:04;;;;;;;3.03;1.10;;;10.30;37.30;;;;;;5081973;28;20473;-79
2022/02/26 11:01:33;;;;;;;2.40;1.10;;;10.70;40.00;;;;;;5086506;28;20457;-80
2022/02/26 11:04:04;;;;;;;3.10;1.03;;;11.30;42.40;;;;;;5080309;28;20558;-78
2022/02/26 11:06:33;;;;;;;4.63;1.50;;;11.60;42.60;;;;;;5076265;28;20480;-77
2022/02/26 11:09:02;;;;;;;4.20;1.33;;;11.70;40.80;;;;;;5073420;28;20536;-80
2022/02/26 11:11:32;;;;;;;6.37;1.20;;;12.20;43.80;;;;;;5080064;28;20460;-79
2022/02/26 11:14:02;;;;;;;3.60;1.10;;;12.60;45.40;;;;;;5076580;28;20467;-79
2022/02/26 11:16:35;;;;;;;2.27;1.20;;;12.60;44.00;;;;;;5079526;28;20542;-78
2022/02/26 11:19:07;;;;;;;1.33;1.10;;;12.40;37.60;;;;;;5078532;28;20486;-79
2022/02/26 11:21:37;;;;;;;3.23;1.40;;;12.10;36.00;;;;;;5077687;28;20454;-79
2022/02/26 11:24:06;;;;;;;6.57;1.43;;;11.90;30.30;;;;;;5079154;28;20464;-80
2022/02/26 11:26:35;;;;;;;6.73;1.20;;;11.70;28.30;;;;;;5079621;28;20451;-79
2022/02/26 11:29:05;;;;;;;2.10;1.57;;;11.70;27.90;;;;;;5083356;28;20452;-79
2022/02/26 11:31:38;;;;;;;2.73;1.20;;;11.50;24.50;;;;;;5080224;28;20449;-81
2022/02/26 11:34:08;;;;;;;4.53;1.10;;;11.40;24.60;;;;;;5083548;28;20752;-79
2022/02/26 11:36:51;;;;;;;4.00;1.13;;;11.50;25.20;;;;;;5088125;28;20453;-79
2022/02/26 11:39:28;;;;;;;3.40;1.27;;;11.40;24.20;;;;;;5085952;28;20473;-80
2022/02/26 11:42:26;;;;;;;5.90;1.07;;;11.20;21.00;;;;;;5089971;28;20509;-79
2022/02/26 11:44:59;;;;;;;2.60;0.90;;;11.10;21.30;;;;;;5082789;28;20479;-79
2022/02/26 11:47:34;;;;;;;2.50;0.93;;;10.90;17.80;;;;;;5086393;28;20521;-79
2022/02/26 11:50:08;;;;;;;2.43;1.30;;;10.70;15.20;;;;;;5089687;28;20444;-79
2022/02/26 11:52:58;;;;;;;4.50;1.03;;;10.70;16.40;;;;;;5085034;28;20466;-79
2022/02/26 11:55:39;;;;;;;4.10;1.00;;;10.70;14.20;;;;;;5070571;28;20463;-77
2022/02/26 11:58:12;;;;;;;1.00;0.80;;;10.70;13.80;;;;;;5081266;28;20459;-80
2022/02/26 12:00:48;;;;;;;1.93;0.90;;;10.80;17.40;;;;;;5080538;28;20457;-81
2022/02/26 12:03:32;;;;;;;3.27;1.47;;;10.90;18.50;;;;;;5081825;28;20477;-80
2022/02/26 12:06:39;;;;;;;3.20;1.10;;;11.00;17.50;;;;;;5077550;28;20449;-79
2022/02/26 12:09:13;;;;;;;2.00;0.97;;;11.00;17.40;;;;;;5082753;28;20472;-80
2022/02/26 12:11:44;;;;;;;2.07;1.00;;;11.10;18.30;;;;;;5080641;28;20522;-78
2022/02/26 12:14:25;;;;;;;3.47;1.20;;;11.10;17.20;;;;;;5084888;28;20997;-80
2022/02/26 12:16:57;;;;;;;2.30;1.07;;;10.70;12.90;;;;;;5081865;28;20576;-79
2022/02/26 12:19:28;;;;;;;2.10;0.90;;;10.70;15.10;;;;;;5080151;28;21017;-80
2022/02/26 12:22:02;;;;;;;2.33;0.87;;;10.90;17.00;;;;;;5084041;28;20462;-80
2022/02/26 12:24:32;;;;;;;4.00;1.20;;;11.00;17.60;;;;;;5083139;28;21065;-78
2022/02/26 12:27:08;;;;;;;4.57;1.00;;;11.00;18.30;;;;;;5081754;28;20491;-79
2022/02/26 12:29:54;;;;;;;1.83;1.00;;;11.10;18.20;;;;;;5085052;28;20956;-79
2022/02/26 12:32:25;;;;;;;2.10;0.90;;;11.10;17.60;;;;;;5083220;28;20962;-80
2022/02/26 12:35:06;;;;;;;2.77;1.10;;;11.00;16.20;;;;;;5083423;28;20487;-79
2022/02/26 12:37:37;;;;;;;1.80;0.90;;;11.00;16.30;;;;;;5079992;28;20972;-79
2022/02/26 12:40:08;;;;;;;1.70;1.07;;;11.00;16.40;;;;;;5083854;28;20630;-79
2022/02/26 12:42:38;;;;;;;5.10;1.20;;;10.90;15.50;;;;;;5079251;28;20462;-79
2022/02/26 12:45:09;;;;;;;1.23;1.03;;;10.80;15.10;;;;;;5085903;28;20481;-79
2022/02/26 12:47:38;;;;;;;3.13;1.03;;;10.90;16.60;;;;;;5081942;28;20472;-78
2022/02/26 12:50:09;;;;;;;2.23;1.00;;;10.90;16.20;;;;;;5086053;28;20442;-79
2022/02/26 12:52:40;;;;;;;2.70;1.20;;;11.00;16.10;;;;;;5085138;28;20941;-79
2022/02/26 12:55:11;;;;;;;1.50;1.10;;;11.20;14.60;;;;;;5088254;28;20248;-79
2022/02/26 12:57:41;;;;;;;1.27;1.10;;;10.80;22.90;;;;;;5081666;28;20471;-80
2022/02/26 13:00:12;;;;;;;3.00;1.00;;;10.60;11.60;;;;;;5083782;28;20486;-80
2022/02/26 13:02:51;;;;;;;5.33;1.20;;;10.40;7.80;;;;;;5083030;28;20455;-80
2022/02/26 13:05:23;;;;;;;7.10;1.10;;;10.40;9.40;;;;;;5071405;28;20450;-79
2022/02/26 13:07:58;;;;;;;1.87;1.17;;;10.60;12.60;;;;;;5081587;28;20465;-76
2022/02/26 13:10:30;;;;;;;3.70;1.17;;;10.70;12.20;;;;;;5082032;28;20450;-79